map of PDP home
PDP - Airport
Location
City:  Maldonado, Maldonado, Uruguay
Name:Capitán Corbeta C.A. Curbelo International Airport
ICAO:SULS
IATA:PDP

Details
Type:Airport (Aerodrome, Airfield)
Use:Public/Civil, Military, International (customs port of entry)
Latitude:34°51'18"S (-34.855138)
Longitude:55°05'39"W (-55.094277)
Datum:WGS 1984
Elevation:95 ft (29 m)
Variation:11.72°W (WMM2015 magnetic declination)
-0.16° annual change
Runways:2
Longest:6998 × 148 ft (2133 × 45 m), paved

Time
Time Zone:UTC-3
Local Time:

Weather
METAR:SULS 181000Z 12012KT 6000 OVC015 18/13 Q1019
TAF:SULS 180530Z 1806/1906 13020KT 9999 BKN010 BKN070 TX21/1818Z TN15/1809Z
TEMPO 1806/1812 3000 DZBR OVC005
BECMG 1816/1818 09015KT 9999 SCT015 BKN200

Related Locations
Nearby:
Farthest:MPK: 12360 mi / 19891 km
Mokpo, KR

Find:

   beyond  
but within

Other Information
Maps:
NOTAMs:
Links:
Sources:

  
  • flag of Uruguay
  • flag of Maldonado
  

Sectional Chart

Flight Planning
at skyvector.com

Satellite Image

Google Maps Satellite view

 

Copyright © 2004-2018 Karl L. Swartz. All rights reserved.
The Great Circle Mapper name and logo are trademarks of the Great Circle Mapper.
All other trademarks mentioned herein belong to their respective owners.
Please see credits for attibutions and further copyright information.

  Follow gcmap on Facebook Follow gcmap on Twitter Follow gcmap on Google+ GCmap on LinkedIn

hCard Microformat

Geo Microformat